createdAt,value
2023-02-19T00:01:09.634Z,90.14
2023-02-19T00:03:13.033Z,89.76
2023-02-19T00:05:16.472Z,89.78
2023-02-19T00:07:19.813Z,89.54
2023-02-19T00:09:24.538Z,89.79
2023-02-19T00:11:30.706Z,89.55
2023-02-19T00:13:37.658Z,89.16
2023-02-19T00:15:40.972Z,89.49
2023-02-19T00:17:44.456Z,89.14
2023-02-19T00:19:47.732Z,89.39
2023-02-19T00:21:52.956Z,89.14
2023-02-19T00:23:59.412Z,89.45
2023-02-19T00:26:17.560Z,89.61
2023-02-19T00:28:24.258Z,89.84
2023-02-19T00:30:27.681Z,89.74
2023-02-19T00:32:31.230Z,90.23
2023-02-19T00:34:34.622Z,90.35
2023-02-19T00:36:39.724Z,90.32
2023-02-19T00:38:44.711Z,90.31
2023-02-19T00:40:47.997Z,90.64
2023-02-19T00:42:52.803Z,90.71
2023-02-19T00:44:56.224Z,90.32
2023-02-19T00:46:59.676Z,90.06
2023-02-19T00:49:03.519Z,90.41
2023-02-19T00:51:07.178Z,90.33
2023-02-19T00:53:10.449Z,90.64
2023-02-19T00:55:13.843Z,90.40
2023-02-19T00:57:17.286Z,91.03
2023-02-19T00:59:22.083Z,91.14
2023-02-19T01:01:25.551Z,91.21
2023-02-19T01:03:29.055Z,91.09
2023-02-19T01:05:32.397Z,91.21
2023-02-19T01:07:37.422Z,90.64
2023-02-19T01:09:40.801Z,91.40
2023-02-19T01:11:44.261Z,90.77
2023-02-19T01:13:47.566Z,90.57
2023-02-19T01:15:52.506Z,91.07
2023-02-19T01:17:55.891Z,90.38
2023-02-19T01:19:59.292Z,90.46
2023-02-19T01:22:03.426Z,91.15
2023-02-19T01:24:07.367Z,91.19
2023-02-19T01:26:15.064Z,90.98
2023-02-19T01:28:18.340Z,90.67
2023-02-19T01:30:21.776Z,91.12
2023-02-19T01:32:26.591Z,90.63
2023-02-19T01:34:33.405Z,90.98
2023-02-19T01:36:37.480Z,90.41
2023-02-19T01:38:40.710Z,90.82
2023-02-19T01:40:43.945Z,91.20
2023-02-19T01:42:47.251Z,90.91
2023-02-19T01:45:18.764Z,90.89
2023-02-19T01:47:22.203Z,90.47
2023-02-19T01:49:30.263Z,90.71
2023-02-19T01:51:34.930Z,90.95
2023-02-19T01:53:40.819Z,91.18
2023-02-19T01:55:47.296Z,91.46
2023-02-19T01:57:54.590Z,91.27
2023-02-19T02:00:03.321Z,91.31
2023-02-19T02:02:15.591Z,91.37
2023-02-19T02:04:20.087Z,90.82
2023-02-19T02:06:29.399Z,90.20
2023-02-19T02:08:51.214Z,90.67
2023-02-19T02:10:58.640Z,90.23
2023-02-19T02:13:02.040Z,91.04
2023-02-19T02:15:05.873Z,89.97
2023-02-19T02:17:21.565Z,90.62
2023-02-19T02:19:54.796Z,90.17
2023-02-19T02:22:08.315Z,90.15
2023-02-19T02:24:42.767Z,90.25
2023-02-19T02:26:57.094Z,89.98
2023-02-19T02:29:38.322Z,90.49
2023-02-19T02:31:51.147Z,90.66
2023-02-19T02:34:00.865Z,90.54
2023-02-19T02:36:09.037Z,90.09
2023-02-19T02:38:16.838Z,89.98
2023-02-19T02:40:21.147Z,89.56
2023-02-19T02:42:30.170Z,89.88
2023-02-19T02:44:41.072Z,89.73
2023-02-19T02:46:47.732Z,89.28
2023-02-19T02:48:55.558Z,89.58
2023-02-19T02:51:04.440Z,89.71
2023-02-19T02:53:36.406Z,90.15
2023-02-19T02:55:44.181Z,89.79
2023-02-19T02:57:47.896Z,89.88
2023-02-19T02:59:51.733Z,89.64
2023-02-19T03:02:12.170Z,89.57
2023-02-19T03:04:16.277Z,89.79
2023-02-19T03:06:22.390Z,90.15
2023-02-19T03:08:31.388Z,89.67
2023-02-19T03:10:41.017Z,89.74
2023-02-19T03:13:04.552Z,89.83
2023-02-19T03:15:29.198Z,90.42
2023-02-19T03:17:57.666Z,91.06
2023-02-19T03:20:05.065Z,90.40
2023-02-19T03:22:15.909Z,90.94
2023-02-19T03:24:39.633Z,91.36
2023-02-19T03:26:45.343Z,91.47
2023-02-19T03:29:10.206Z,91.66
2023-02-19T03:31:22.028Z,91.53
2023-02-19T03:33:30.440Z,91.62
2023-02-19T03:35:36.923Z,91.25
2023-02-19T03:37:45.473Z,92.17
2023-02-19T03:39:48.848Z,91.95
2023-02-19T03:42:01.283Z,92.00
2023-02-19T03:44:09.244Z,92.62
2023-02-19T03:46:17.140Z,92.28
2023-02-19T03:48:34.478Z,92.37
2023-02-19T03:50:42.697Z,92.10
2023-02-19T03:52:55.609Z,92.77
2023-02-19T03:55:08.409Z,92.41
2023-02-19T03:57:20.464Z,92.86
2023-02-19T03:59:31.568Z,92.54
2023-02-19T04:01:43.546Z,93.20
2023-02-19T04:03:55.936Z,93.15
2023-02-19T04:06:03.747Z,93.35
2023-02-19T04:08:14.500Z,93.13
2023-02-19T04:10:24.071Z,93.19
2023-02-19T04:12:31.169Z,93.20
2023-02-19T04:14:40.038Z,93.03
2023-02-19T04:16:49.014Z,93.43
2023-02-19T04:18:58.216Z,93.17
2023-02-19T04:21:02.219Z,92.57
2023-02-19T04:23:05.758Z,92.84
2023-02-19T04:25:09.679Z,93.11
2023-02-19T04:27:13.187Z,93.34
2023-02-19T04:29:16.606Z,93.46
2023-02-19T04:31:19.952Z,93.19
2023-02-19T04:33:23.342Z,93.43
2023-02-19T04:35:27.983Z,93.74
2023-02-19T04:37:31.191Z,93.50
2023-02-19T04:39:34.990Z,93.42
2023-02-19T04:41:38.366Z,94.00
2023-02-19T04:43:41.693Z,94.01
2023-02-19T04:45:44.968Z,93.68
2023-02-19T04:47:48.230Z,93.68
2023-02-19T04:49:51.522Z,94.54
2023-02-19T04:51:56.229Z,94.71
2023-02-19T04:53:59.467Z,94.81
2023-02-19T04:56:07.870Z,95.23
2023-02-19T04:58:11.110Z,95.62
2023-02-19T05:00:15.601Z,95.96
2023-02-19T05:02:18.810Z,96.13
2023-02-19T05:04:22.338Z,96.61
2023-02-19T05:06:25.651Z,96.92
2023-02-19T05:08:30.280Z,96.73
2023-02-19T05:10:33.811Z,97.13
2023-02-19T05:12:37.017Z,98.29
2023-02-19T05:14:40.230Z,98.19
2023-02-19T05:16:43.680Z,98.01
2023-02-19T05:18:48.031Z,98.01
2023-02-19T05:20:52.320Z,98.88
2023-02-19T05:22:55.521Z,98.93
2023-02-19T05:25:00.126Z,98.64
2023-02-19T05:27:03.490Z,98.93
2023-02-19T05:29:06.816Z,98.81
2023-02-19T05:31:12.374Z,99.16
2023-02-19T05:33:16.911Z,99.63
2023-02-19T05:35:20.112Z,99.28
2023-02-19T05:37:23.359Z,98.46
2023-02-19T05:39:26.579Z,98.82
2023-02-19T05:41:31.880Z,98.51
2023-02-19T05:43:35.221Z,98.69
2023-02-19T05:45:38.957Z,99.04
2023-02-19T05:47:42.163Z,98.61
2023-02-19T05:49:45.448Z,98.90
2023-02-19T05:51:51.928Z,98.01
2023-02-19T05:53:56.526Z,98.23
2023-02-19T05:56:00.303Z,98.43
2023-02-19T05:58:05.177Z,97.54
2023-02-19T06:00:09.669Z,98.28
2023-02-19T06:02:15.374Z,97.50
2023-02-19T06:04:20.146Z,97.61
2023-02-19T06:06:24.259Z,97.86
2023-02-19T06:08:27.512Z,98.08
2023-02-19T06:10:30.881Z,98.37
2023-02-19T06:12:34.338Z,98.03
2023-02-19T06:14:38.980Z,98.01
2023-02-19T06:16:43.074Z,97.74
2023-02-19T06:18:46.534Z,97.74
2023-02-19T06:20:49.822Z,98.07
2023-02-19T06:22:53.113Z,97.73
2023-02-19T06:24:56.388Z,98.41
2023-02-19T06:26:59.645Z,98.09
2023-02-19T06:29:02.943Z,98.24
2023-02-19T06:31:08.665Z,98.78
2023-02-19T06:33:12.050Z,99.12
2023-02-19T06:35:15.387Z,99.48
2023-02-19T06:37:18.604Z,99.08
2023-02-19T06:39:21.776Z,99.41
2023-02-19T06:41:25.020Z,99.05
2023-02-19T06:43:28.244Z,99.82
2023-02-19T06:45:31.438Z,100.00
2023-02-19T06:47:36.110Z,100.00
2023-02-19T06:49:40.787Z,100.00
2023-02-19T06:51:44.242Z,100.00
2023-02-19T06:53:47.780Z,100.00
2023-02-19T06:55:57.324Z,100.00
2023-02-19T06:58:00.699Z,100.00
2023-02-19T07:00:04.784Z,100.00
2023-02-19T07:02:08.474Z,100.00
2023-02-19T07:04:13.623Z,100.00
2023-02-19T07:06:16.803Z,100.00
2023-02-19T07:08:20.044Z,100.00
2023-02-19T07:10:23.325Z,100.00
2023-02-19T07:12:26.576Z,100.00
2023-02-19T07:14:30.813Z,100.00
2023-02-19T07:16:34.091Z,100.00
2023-02-19T07:18:37.379Z,100.00
2023-02-19T07:20:42.038Z,100.00
2023-02-19T07:22:45.303Z,100.00
2023-02-19T07:24:48.484Z,100.00
2023-02-19T07:26:51.690Z,100.00
2023-02-19T07:28:54.959Z,100.00
2023-02-19T07:31:03.449Z,100.00
2023-02-19T07:33:09.342Z,100.00
2023-02-19T07:35:13.540Z,100.00
2023-02-19T07:37:18.242Z,100.00
2023-02-19T07:39:21.432Z,100.00
2023-02-19T07:41:25.126Z,100.00
2023-02-19T07:43:30.941Z,100.00
2023-02-19T07:45:34.247Z,100.00
2023-02-19T07:47:37.682Z,100.00
2023-02-19T07:49:40.947Z,100.00
2023-02-19T07:51:44.712Z,100.00
2023-02-19T07:53:51.442Z,100.00
2023-02-19T07:55:54.821Z,100.00
2023-02-19T07:57:59.697Z,100.00
2023-02-19T08:00:03.516Z,100.00
2023-02-19T08:02:35.876Z,100.00
2023-02-19T08:04:39.284Z,100.00
2023-02-19T08:06:43.273Z,100.00
2023-02-19T08:08:46.459Z,100.00
2023-02-19T08:11:08.802Z,100.00
2023-02-19T08:13:23.772Z,100.00
2023-02-19T08:15:27.068Z,100.00
2023-02-19T08:17:31.354Z,100.00
2023-02-19T08:19:34.635Z,100.00
2023-02-19T08:21:38.055Z,100.00
2023-02-19T08:23:41.455Z,100.00
2023-02-19T08:25:45.467Z,100.00
2023-02-19T08:27:50.153Z,100.00
2023-02-19T08:29:53.538Z,100.00
2023-02-19T08:31:56.836Z,100.00
2023-02-19T08:34:00.179Z,100.00
2023-02-19T08:36:05.619Z,100.00
2023-02-19T08:38:09.163Z,100.00
2023-02-19T08:40:13.276Z,100.00
2023-02-19T08:42:16.507Z,100.00
2023-02-19T08:44:21.248Z,100.00
2023-02-19T08:46:24.673Z,100.00
2023-02-19T08:48:28.096Z,100.00
2023-02-19T08:50:31.829Z,100.00
2023-02-19T08:52:35.698Z,100.00
2023-02-19T08:54:39.056Z,100.00
2023-02-19T08:56:42.546Z,100.00
2023-02-19T08:58:47.172Z,100.00
2023-02-19T09:00:51.842Z,100.00
2023-02-19T09:02:55.216Z,100.00
2023-02-19T09:04:58.474Z,100.00
2023-02-19T09:07:01.897Z,100.00
2023-02-19T09:09:05.743Z,100.00
2023-02-19T09:11:09.329Z,100.00
2023-02-19T09:13:13.098Z,100.00
2023-02-19T09:15:16.717Z,100.00
2023-02-19T09:17:21.468Z,100.00
2023-02-19T09:19:25.068Z,100.00
2023-02-19T09:21:28.334Z,100.00
2023-02-19T09:23:31.641Z,100.00
2023-02-19T09:25:35.047Z,100.00
2023-02-19T09:27:38.484Z,100.00
2023-02-19T09:29:41.902Z,100.00
2023-02-19T09:31:45.327Z,100.00
2023-02-19T09:33:50.677Z,100.00
2023-02-19T09:35:54.106Z,100.00
2023-02-19T09:38:00.880Z,100.00
2023-02-19T09:40:04.357Z,100.00
2023-02-19T09:42:15.567Z,100.00
2023-02-19T09:44:25.905Z,100.00
2023-02-19T09:46:33.223Z,100.00
2023-02-19T09:48:36.801Z,100.00
2023-02-19T09:50:46.109Z,100.00
2023-02-19T09:52:53.431Z,99.26
2023-02-19T09:55:00.605Z,99.41
2023-02-19T09:57:05.313Z,99.83
2023-02-19T09:59:20.741Z,99.79
2023-02-19T10:01:26.891Z,100.00
2023-02-19T10:03:34.403Z,100.00
2023-02-19T10:05:40.143Z,99.85
2023-02-19T10:07:47.397Z,100.00
2023-02-19T10:09:57.096Z,100.00
2023-02-19T10:12:01.264Z,100.00
2023-02-19T10:14:09.430Z,100.00
2023-02-19T10:16:17.692Z,99.99
2023-02-19T10:18:23.750Z,99.64
2023-02-19T10:20:29.144Z,99.53
2023-02-19T10:22:34.325Z,99.42
2023-02-19T10:24:41.389Z,98.77
2023-02-19T10:26:44.735Z,98.61
2023-02-19T10:28:47.953Z,98.64
2023-02-19T10:30:55.113Z,98.72
2023-02-19T10:33:04.790Z,98.67
2023-02-19T10:35:13.369Z,98.22
2023-02-19T10:37:19.434Z,98.67
2023-02-19T10:39:46.419Z,97.76
2023-02-19T10:41:51.001Z,97.39
2023-02-19T10:43:57.617Z,96.55
2023-02-19T10:46:04.826Z,96.63
2023-02-19T10:48:24.936Z,96.47
2023-02-19T10:50:33.090Z,96.04
2023-02-19T10:52:37.100Z,96.88
2023-02-19T10:54:40.981Z,96.57
2023-02-19T10:56:46.101Z,96.06
2023-02-19T10:58:49.011Z,96.16
2023-02-19T11:01:12.239Z,96.17
2023-02-19T11:03:24.127Z,95.67
2023-02-19T11:05:27.458Z,95.42
2023-02-19T11:07:30.893Z,95.49
2023-02-19T11:09:39.643Z,95.05
2023-02-19T11:11:43.031Z,95.56
2023-02-19T11:13:48.552Z,94.99
2023-02-19T11:15:54.334Z,94.78
2023-02-19T11:18:01.474Z,94.81
2023-02-19T11:20:15.444Z,94.18
2023-02-19T11:22:30.830Z,94.16
2023-02-19T11:24:37.563Z,93.81
2023-02-19T11:26:40.879Z,93.77
2023-02-19T11:28:45.541Z,93.80
2023-02-19T11:30:50.446Z,93.56
2023-02-19T11:32:53.933Z,93.07
2023-02-19T11:35:17.901Z,92.83
2023-02-19T11:37:22.835Z,92.65
2023-02-19T11:39:31.958Z,91.89
2023-02-19T11:41:56.550Z,91.34
2023-02-19T11:44:14.323Z,90.95
2023-02-19T11:46:29.074Z,89.99
2023-02-19T11:49:03.575Z,88.58
2023-02-19T11:51:20.145Z,87.24
2023-02-19T11:53:28.216Z,86.25
2023-02-19T11:55:45.678Z,85.59
2023-02-19T11:57:50.007Z,82.94
2023-02-19T12:00:04.646Z,82.07
2023-02-19T12:02:36.973Z,81.08
2023-02-19T12:05:08.865Z,81.94
2023-02-19T12:07:28.793Z,81.89
2023-02-19T12:09:48.538Z,81.45
2023-02-19T12:12:02.955Z,81.74
2023-02-19T12:14:35.311Z,82.91
2023-02-19T12:16:45.380Z,83.62
2023-02-19T12:19:18.945Z,83.84
2023-02-19T12:21:37.578Z,83.66
2023-02-19T12:23:58.275Z,83.16
2023-02-19T12:26:09.453Z,83.29
2023-02-19T12:28:37.717Z,83.26
2023-02-19T12:31:04.841Z,82.29
2023-02-19T12:33:44.032Z,81.53
2023-02-19T12:36:06.231Z,81.97
2023-02-19T12:38:21.916Z,82.87
2023-02-19T12:40:39.507Z,83.19
2023-02-19T12:42:56.834Z,82.87
2023-02-19T12:45:06.607Z,82.57
2023-02-19T12:47:18.453Z,82.61
2023-02-19T12:49:28.866Z,81.77
2023-02-19T12:51:41.187Z,81.79
2023-02-19T12:53:51.479Z,81.70
2023-02-19T12:55:58.124Z,81.89
2023-02-19T12:58:05.654Z,82.58
2023-02-19T13:00:26.562Z,82.51
2023-02-19T13:02:36.573Z,82.58
2023-02-19T13:04:48.446Z,82.88
2023-02-19T13:06:57.988Z,83.31
2023-02-19T13:09:09.418Z,83.15
2023-02-19T13:11:18.555Z,83.30
2023-02-19T13:13:27.097Z,83.62
2023-02-19T13:15:36.233Z,83.74
2023-02-19T13:17:45.560Z,83.72
2023-02-19T13:19:51.841Z,83.08
2023-02-19T13:22:23.986Z,83.04
2023-02-19T13:24:30.408Z,82.85
2023-02-19T13:26:49.347Z,82.87
2023-02-19T13:29:09.477Z,82.71
2023-02-19T13:31:33.252Z,82.89
2023-02-19T13:33:48.428Z,82.99
2023-02-19T13:36:08.309Z,83.57
2023-02-19T13:38:15.198Z,82.87
2023-02-19T13:40:27.205Z,82.58
2023-02-19T13:42:34.890Z,82.67
2023-02-19T13:44:42.199Z,82.52
2023-02-19T13:46:47.706Z,82.29
2023-02-19T13:49:38.670Z,81.92
2023-02-19T13:51:51.561Z,81.56
2023-02-19T13:54:00.789Z,81.36
2023-02-19T13:56:04.447Z,81.73
2023-02-19T13:59:01.599Z,82.05
2023-02-19T14:01:06.864Z,82.08
2023-02-19T14:03:30.671Z,81.78
2023-02-19T14:06:09.920Z,81.59
2023-02-19T14:08:14.954Z,81.28
2023-02-19T14:10:58.093Z,80.49
2023-02-19T14:13:01.619Z,81.59
2023-02-19T14:15:49.942Z,81.74
2023-02-19T14:17:55.390Z,81.78
2023-02-19T14:20:01.375Z,81.71
2023-02-19T14:22:43.862Z,81.45
2023-02-19T14:24:49.310Z,81.21
2023-02-19T14:26:53.344Z,80.79
2023-02-19T14:28:57.476Z,81.03
2023-02-19T14:31:04.267Z,81.23
2023-02-19T14:33:12.029Z,81.09
2023-02-19T14:35:20.655Z,81.03
2023-02-19T14:37:24.483Z,80.93
2023-02-19T14:39:31.363Z,81.00
2023-02-19T14:41:41.854Z,81.20
2023-02-19T14:43:48.346Z,81.57
2023-02-19T14:45:56.504Z,81.57
2023-02-19T14:48:03.621Z,81.95
2023-02-19T14:50:10.778Z,82.05
2023-02-19T14:52:19.729Z,81.72
2023-02-19T14:54:37.214Z,81.74
2023-02-19T14:56:45.949Z,81.86
2023-02-19T14:59:08.495Z,82.15
2023-02-19T15:01:27.532Z,82.09
2023-02-19T15:03:34.752Z,81.98
2023-02-19T15:05:38.874Z,81.70
2023-02-19T15:07:43.857Z,81.24
2023-02-19T15:09:50.532Z,81.16
2023-02-19T15:11:57.266Z,80.78
2023-02-19T15:14:04.019Z,81.09
2023-02-19T15:16:08.818Z,80.83
2023-02-19T15:18:18.271Z,80.77
2023-02-19T15:20:26.969Z,80.40
2023-02-19T15:22:32.833Z,80.36
2023-02-19T15:24:36.520Z,80.75
2023-02-19T15:26:41.902Z,81.09
2023-02-19T15:28:46.921Z,80.97
2023-02-19T15:30:50.636Z,81.07
2023-02-19T15:32:56.185Z,81.44
2023-02-19T15:35:01.187Z,81.54
2023-02-19T15:37:06.571Z,81.51
2023-02-19T15:39:21.073Z,81.75
2023-02-19T15:41:28.745Z,81.27
2023-02-19T15:43:34.829Z,81.89
2023-02-19T15:45:45.946Z,81.90
2023-02-19T15:47:50.773Z,81.58
2023-02-19T15:49:59.866Z,81.72
2023-02-19T15:52:09.457Z,81.68
2023-02-19T15:54:27.110Z,81.84
2023-02-19T15:56:33.797Z,82.32
2023-02-19T15:58:42.891Z,82.61
2023-02-19T16:00:51.782Z,82.36
2023-02-19T16:02:55.459Z,82.59
2023-02-19T16:05:02.372Z,82.11
2023-02-19T16:07:05.885Z,82.48
2023-02-19T16:09:22.417Z,82.25
2023-02-19T16:11:31.431Z,82.34
2023-02-19T16:13:36.276Z,82.30
2023-02-19T16:15:40.846Z,81.98
2023-02-19T16:17:46.339Z,82.52
2023-02-19T16:19:54.736Z,82.44
2023-02-19T16:21:59.869Z,82.85
2023-02-19T16:24:15.730Z,82.88
2023-02-19T16:26:20.191Z,83.36
2023-02-19T16:28:26.123Z,83.74
2023-02-19T16:30:34.205Z,83.80
2023-02-19T16:33:31.228Z,84.43
2023-02-19T16:35:52.723Z,84.42
2023-02-19T16:38:01.059Z,85.30
2023-02-19T16:40:52.624Z,85.46
2023-02-19T16:43:25.878Z,85.42
2023-02-19T16:45:29.422Z,85.72
2023-02-19T16:47:35.063Z,86.60
2023-02-19T16:49:38.977Z,86.53
2023-02-19T16:51:45.799Z,87.04
2023-02-19T16:53:49.260Z,87.12
2023-02-19T16:55:53.184Z,87.19
2023-02-19T16:57:57.283Z,87.71
2023-02-19T17:00:00.923Z,87.75
2023-02-19T17:02:06.355Z,88.12
2023-02-19T17:04:12.958Z,88.04
2023-02-19T17:06:17.457Z,88.54
2023-02-19T17:08:33.977Z,88.92
2023-02-19T17:10:38.030Z,89.08
2023-02-19T17:12:41.547Z,89.50
2023-02-19T17:14:45.231Z,89.79
2023-02-19T17:16:48.891Z,90.13
2023-02-19T17:18:52.678Z,90.17
2023-02-19T17:21:01.932Z,90.05
2023-02-19T17:23:05.818Z,90.56
2023-02-19T17:25:10.905Z,91.11
2023-02-19T17:27:14.840Z,91.11
2023-02-19T17:29:20.026Z,90.90
2023-02-19T17:31:23.821Z,91.34
2023-02-19T17:33:27.500Z,91.59
2023-02-19T17:35:31.119Z,91.81
2023-02-19T17:37:34.700Z,92.05
2023-02-19T17:39:37.998Z,92.39
2023-02-19T17:41:43.099Z,92.79
2023-02-19T17:43:47.668Z,92.76
2023-02-19T17:45:51.280Z,92.81
2023-02-19T17:47:54.858Z,92.62
2023-02-19T17:49:58.307Z,92.93
2023-02-19T17:52:01.932Z,93.04
2023-02-19T17:54:08.244Z,93.36
2023-02-19T17:56:16.834Z,93.36
2023-02-19T17:58:21.860Z,93.50
2023-02-19T18:00:26.399Z,93.49
2023-02-19T18:02:30.048Z,93.36
2023-02-19T18:04:35.558Z,93.34
2023-02-19T18:06:39.909Z,93.54
2023-02-19T18:08:48.826Z,93.75
2023-02-19T18:10:52.744Z,94.00
2023-02-19T18:12:56.223Z,94.10
2023-02-19T18:15:01.184Z,94.13
2023-02-19T18:17:04.572Z,94.30
2023-02-19T18:19:09.094Z,94.41
2023-02-19T18:21:14.447Z,94.11
2023-02-19T18:23:20.737Z,94.16
2023-02-19T18:25:24.965Z,94.37
2023-02-19T18:27:28.615Z,94.42
2023-02-19T18:29:35.040Z,94.69
2023-02-19T18:31:40.647Z,94.86
2023-02-19T18:33:44.336Z,94.90
2023-02-19T18:35:50.483Z,94.79
2023-02-19T18:37:56.023Z,94.49
2023-02-19T18:39:59.611Z,95.27
2023-02-19T18:42:03.334Z,94.97
2023-02-19T18:44:07.165Z,95.42
2023-02-19T18:46:11.220Z,95.59
2023-02-19T18:48:16.167Z,95.68
2023-02-19T18:50:21.142Z,95.57
2023-02-19T18:52:26.367Z,95.99
2023-02-19T18:54:30.292Z,95.72
2023-02-19T18:56:33.828Z,96.22
2023-02-19T18:58:37.322Z,95.97
2023-02-19T19:00:40.862Z,96.31
2023-02-19T19:02:49.691Z,96.24
2023-02-19T19:04:57.262Z,96.07
2023-02-19T19:07:00.877Z,96.48
2023-02-19T19:09:04.682Z,96.56
2023-02-19T19:11:08.206Z,96.46
2023-02-19T19:13:11.786Z,96.96
2023-02-19T19:15:18.168Z,96.49
2023-02-19T19:17:22.180Z,96.63
2023-02-19T19:19:26.018Z,96.55
2023-02-19T19:21:31.286Z,96.74
2023-02-19T19:23:35.111Z,96.93
2023-02-19T19:25:39.222Z,96.85
2023-02-19T19:27:42.993Z,97.24
2023-02-19T19:29:47.888Z,97.59
2023-02-19T19:31:52.045Z,97.46
2023-02-19T19:33:55.668Z,98.00
2023-02-19T19:35:59.316Z,98.24
2023-02-19T19:38:04.444Z,98.08
2023-02-19T19:40:09.808Z,97.90
2023-02-19T19:42:13.621Z,98.69
2023-02-19T19:44:17.286Z,98.57
2023-02-19T19:46:21.193Z,98.64
2023-02-19T19:48:27.741Z,99.04
2023-02-19T19:50:31.563Z,98.62
2023-02-19T19:52:35.265Z,98.26
2023-02-19T19:54:42.314Z,98.63
2023-02-19T19:56:50.551Z,98.72
2023-02-19T19:58:54.599Z,98.70
2023-02-19T20:00:59.359Z,98.90
2023-02-19T20:03:03.437Z,98.39
2023-02-19T20:05:07.919Z,98.73
2023-02-19T20:07:11.855Z,98.70
2023-02-19T20:09:15.873Z,99.16
2023-02-19T20:11:21.255Z,99.13
2023-02-19T20:13:26.840Z,99.38
2023-02-19T20:15:30.656Z,99.43
2023-02-19T20:17:34.672Z,99.14
2023-02-19T20:19:38.547Z,99.43
2023-02-19T20:21:46.137Z,99.74
2023-02-19T20:23:49.655Z,99.50
2023-02-19T20:25:53.427Z,99.42
2023-02-19T20:27:58.751Z,99.87
2023-02-19T20:30:02.480Z,99.76
2023-02-19T20:32:06.684Z,100.00
2023-02-19T20:34:10.545Z,99.92
2023-02-19T20:36:14.556Z,100.00
2023-02-19T20:38:18.554Z,100.00
2023-02-19T20:40:24.442Z,100.00
2023-02-19T20:42:28.082Z,99.61
2023-02-19T20:44:33.808Z,99.78
2023-02-19T20:46:42.722Z,99.67
2023-02-19T20:48:46.471Z,99.82
2023-02-19T20:50:50.210Z,99.54
2023-02-19T20:52:55.948Z,99.44
2023-02-19T20:54:59.623Z,99.77
2023-02-19T20:57:05.482Z,99.79
2023-02-19T20:59:09.722Z,99.78
2023-02-19T21:01:15.060Z,99.85
2023-02-19T21:03:18.877Z,99.60
2023-02-19T21:05:23.296Z,99.64
2023-02-19T21:07:27.615Z,99.45
2023-02-19T21:09:32.539Z,99.46
2023-02-19T21:11:36.270Z,99.54
2023-02-19T21:13:41.456Z,99.61
2023-02-19T21:15:45.743Z,99.71
2023-02-19T21:17:51.879Z,99.90
2023-02-19T21:19:56.276Z,99.85
2023-02-19T21:22:00.228Z,99.92
2023-02-19T21:24:04.490Z,100.00
2023-02-19T21:26:08.412Z,100.00
2023-02-19T21:28:12.788Z,100.00
2023-02-19T21:30:16.736Z,100.00
2023-02-19T21:32:20.725Z,100.00
2023-02-19T21:34:27.778Z,100.00
2023-02-19T21:36:31.597Z,100.00
2023-02-19T21:38:35.596Z,100.00
2023-02-19T21:40:39.629Z,100.00
2023-02-19T21:42:43.412Z,100.00
2023-02-19T21:44:48.040Z,100.00
2023-02-19T21:46:52.685Z,100.00
2023-02-19T21:48:57.771Z,100.00
2023-02-19T21:51:05.051Z,100.00
2023-02-19T21:53:08.600Z,100.00
2023-02-19T21:55:12.199Z,100.00
2023-02-19T21:57:16.122Z,100.00
2023-02-19T21:59:20.819Z,100.00
2023-02-19T22:01:24.850Z,100.00
2023-02-19T22:03:28.712Z,100.00
2023-02-19T22:05:32.478Z,100.00
2023-02-19T22:07:37.688Z,100.00
2023-02-19T22:09:41.609Z,100.00
2023-02-19T22:11:45.231Z,100.00
2023-02-19T22:13:49.113Z,100.00
2023-02-19T22:15:52.765Z,100.00
2023-02-19T22:17:56.474Z,100.00
2023-02-19T22:20:00.362Z,100.00
2023-02-19T22:22:05.024Z,100.00
2023-02-19T22:24:16.528Z,100.00
2023-02-19T22:26:21.732Z,100.00
2023-02-19T22:28:25.282Z,100.00
2023-02-19T22:30:29.389Z,100.00
2023-02-19T22:32:33.114Z,100.00
2023-02-19T22:34:40.750Z,100.00
2023-02-19T22:36:45.194Z,100.00
2023-02-19T22:38:49.394Z,100.00
2023-02-19T22:40:54.787Z,100.00
2023-02-19T22:42:58.392Z,100.00
2023-02-19T22:45:02.422Z,100.00
2023-02-19T22:47:06.394Z,100.00
2023-02-19T22:49:10.029Z,100.00
2023-02-19T22:51:14.991Z,100.00
2023-02-19T22:53:19.116Z,100.00
2023-02-19T22:55:23.524Z,100.00
2023-02-19T22:57:28.944Z,100.00
2023-02-19T22:59:32.841Z,100.00
2023-02-19T23:01:36.950Z,100.00
2023-02-19T23:03:47.827Z,100.00
2023-02-19T23:05:51.634Z,100.00
2023-02-19T23:07:55.483Z,100.00
2023-02-19T23:09:59.499Z,100.00
2023-02-19T23:12:04.689Z,100.00
2023-02-19T23:14:10.261Z,100.00
2023-02-19T23:16:14.570Z,100.00
2023-02-19T23:18:18.590Z,100.00
2023-02-19T23:20:22.511Z,100.00
2023-02-19T23:22:26.602Z,100.00
2023-02-19T23:24:30.489Z,100.00
2023-02-19T23:26:34.219Z,100.00
2023-02-19T23:28:37.852Z,100.00
2023-02-19T23:30:43.135Z,100.00
2023-02-19T23:32:46.899Z,100.00
2023-02-19T23:34:50.696Z,100.00
2023-02-19T23:36:55.626Z,100.00
2023-02-19T23:38:59.061Z,100.00
2023-02-19T23:41:02.897Z,100.00
2023-02-19T23:43:06.595Z,100.00
2023-02-19T23:45:10.846Z,100.00
2023-02-19T23:47:16.139Z,100.00
2023-02-19T23:49:20.170Z,100.00
2023-02-19T23:51:24.868Z,100.00
2023-02-19T23:53:28.378Z,100.00
2023-02-19T23:55:31.867Z,100.00
2023-02-19T23:57:35.455Z,100.00
2023-02-19T23:59:38.969Z,100.00
